St. Francis, KS

8:17 PM CDT on April 28, 2017 (GMT -0500)
Cheyenne County Municipal

Weather History for KSYF - November, 2012

Change the Weather History Date:

Friday, November 2, 2012

  Actual Average Record
Temperature  
Mean Temperature 52 °F -  
Max Temperature 67 °F 54 °F 76 °F (2014)
Min Temperature 38 °F 29 °F 27 °F (2013)
Degree Days  
Heating Degree Days 12    
Growing Degree Days 2 (Base 50)    
Moisture  
Dew Point 32 °F    
Average Humidity 52    
Maximum Humidity 79    
Minimum Humidity 20    
Precipitation  
Precipitation 0.00 in - - ()
Sea Level Pressure  
Sea Level Pressure 29.97 in    
Wind  
Wind Speed 7 mph ()    
Max Wind Speed 25 mph    
Max Gust Speed 33 mph    
Visibility 10.0 miles    
Events      
Averages and records for this station are not official NWS values.
T = Trace of Precipitation, MM = Missing Value Source: Averaged Metar Reports

Daily Weather History Graph

Daily Weather History Graph

Search for Another Location

Airport or City:

Trip Planner

Search our weather history database for the weather conditions in past years. The results will help you decide how hot, cold, wet, or windy it might be!

Date:

Astronomy

Nov. 02, 2012 Rise Set
Actual Time 8:17 AM CDT 6:43 PM CDT
Civil Twilight 7:49 AM CDT 7:11 PM CDT
Nautical Twilight 7:17 AM CDT 7:43 PM CDT
Astronomical Twilight 6:46 AM CDT 8:14 PM CDT
Moon 9:32 PM CDT (11/2) 11:39 AM CDT (11/2)
Length of Visible Light 11h 21m
Length of Day
10h 25m
Waning Gibbous, 87% of the Moon is Illuminated
Nov 2
Waning Gibbous
Nov 6
Last Quarter
Nov 13
New
Nov 20
First Quarter
Nov 28
Full

Hourly Weather History & Observations

Time (CDT) Temp. Windchill Dew Point Humidity Pressure Visibility Wind Dir Wind Speed Gust Speed Precip Events Conditions
12:15 AM 52.3 °F - 30.2 °F 43% 29.87 in 10.0 mi Calm Calm - N/A   Clear
12:35 AM 49.6 °F - 31.3 °F 49% 29.87 in 10.0 mi North 4.6 mph - N/A   Clear
12:55 AM 47.3 °F - 30.7 °F 53% 29.87 in 10.0 mi Calm Calm - N/A   Clear
1:15 AM 47.8 °F - 30.7 °F 52% 29.86 in 10.0 mi ESE 4.6 mph - N/A   Clear
1:35 AM 45.3 °F 42.3 °F 31.3 °F 58% 29.86 in 10.0 mi ESE 5.8 mph - N/A   Clear
1:55 AM 45.5 °F 42.5 °F 31.1 °F 57% 29.85 in 10.0 mi ESE 5.8 mph - N/A   Clear
2:15 AM 42.8 °F - 30.7 °F 62% 29.84 in 10.0 mi Calm Calm - N/A   Clear
2:35 AM 42.3 °F 40.5 °F 30.2 °F 62% 29.84 in 10.0 mi SSE 3.5 mph - N/A   Clear
2:55 AM 41.0 °F 38.0 °F 30.4 °F 66% 29.84 in 10.0 mi WSW 4.6 mph - N/A   Clear
3:15 AM 40.5 °F 35.1 °F 30.2 °F 67% 29.84 in 10.0 mi SW 8.1 mph - N/A   Clear
3:35 AM 39.2 °F 34.2 °F 30.2 °F 70% 29.83 in 10.0 mi SW 6.9 mph - N/A   Clear
3:55 AM 39.9 °F 33.4 °F 30.2 °F 68% 29.84 in 10.0 mi WSW 10.4 mph - N/A   Clear
4:15 AM 39.2 °F 32.5 °F 30.2 °F 70% 29.85 in 10.0 mi WSW 10.4 mph - N/A   Clear
4:35 AM 38.3 °F 33.2 °F 30.0 °F 72% 29.84 in 10.0 mi WSW 6.9 mph - N/A   Clear
4:55 AM 38.3 °F 31.9 °F 30.0 °F 72% 29.84 in 10.0 mi WSW 9.2 mph - N/A   Clear
5:15 AM 39.0 °F 34.0 °F 30.9 °F 73% 29.84 in 10.0 mi West 6.9 mph - N/A   Clear
5:35 AM 41.2 °F 37.3 °F 32.0 °F 70% 29.85 in 10.0 mi WSW 5.8 mph - N/A   Clear
5:55 AM 43.5 °F 41.9 °F 32.0 °F 64% 29.85 in 10.0 mi WSW 3.5 mph - N/A   Clear
6:15 AM 44.1 °F - 32.4 °F 63% 29.86 in 10.0 mi Calm Calm - N/A   Clear
6:35 AM 45.9 °F 43.6 °F 32.9 °F 61% 29.88 in 10.0 mi NW 4.6 mph - N/A   Clear
6:55 AM 44.2 °F 41.0 °F 32.9 °F 64% 29.87 in 10.0 mi NW 5.8 mph - N/A   Clear
7:15 AM 43.9 °F 42.3 °F 33.1 °F 66% 29.88 in 10.0 mi WNW 3.5 mph - N/A   Clear
7:35 AM 43.7 °F 40.3 °F 32.9 °F 66% 29.88 in 10.0 mi West 5.8 mph - N/A   Clear
7:55 AM 46.6 °F - 33.8 °F 61% 29.89 in 10.0 mi NW 3.5 mph - N/A   Clear
8:15 AM 46.8 °F - 33.1 °F 59% 29.89 in 10.0 mi WNW 4.6 mph - N/A   Clear
8:35 AM 45.9 °F - 32.7 °F 60% 29.90 in 10.0 mi Calm Calm - N/A   Clear
8:55 AM 48.7 °F - 32.0 °F 52% 29.91 in 10.0 mi NNW 4.6 mph - N/A   Clear
9:15 AM 51.8 °F - 32.7 °F 48% 29.92 in 10.0 mi NNW 5.8 mph - N/A   Clear
9:35 AM 54.3 °F - 31.8 °F 42% 29.93 in 10.0 mi NW 6.9 mph - N/A   Clear
9:55 AM 56.5 °F - 31.3 °F 38% 29.93 in 10.0 mi NW 5.8 mph - N/A   Clear
10:15 AM 59.5 °F - 30.0 °F 33% 29.94 in 10.0 mi NW 9.2 mph - N/A   Clear
10:35 AM 62.1 °F - 28.8 °F 28% 29.96 in 10.0 mi NNW 10.4 mph - N/A   Clear
10:55 AM 66.6 °F - 25.3 °F 21% 29.96 in 10.0 mi North 25.3 mph 33.4 mph N/A   Clear
11:15 AM 67.1 °F - 25.0 °F 20% 29.97 in 10.0 mi North 19.6 mph 27.6 mph N/A   Clear
11:35 AM 65.5 °F - 26.1 °F 23% 29.98 in 10.0 mi North 21.9 mph 28.8 mph N/A   Clear
11:55 AM 65.7 °F - 26.8 °F 23% 29.99 in 10.0 mi North 16.1 mph 29.9 mph N/A   Clear
12:15 PM 64.8 °F - 26.6 °F 24% 29.99 in 10.0 mi North 24.2 mph 28.8 mph N/A   Clear
12:35 PM 63.1 °F - 27.7 °F 26% 29.99 in 10.0 mi NNW 21.9 mph 28.8 mph N/A   Clear
12:55 PM 65.1 °F - 28.4 °F 25% 29.99 in 10.0 mi NNW 18.4 mph 29.9 mph N/A   Clear
1:15 PM 64.9 °F - 28.9 °F 26% 29.99 in 10.0 mi North 24.2 mph 31.1 mph N/A   Clear
1:35 PM 64.2 °F - 30.0 °F 28% 29.99 in 10.0 mi North 17.3 mph 26.5 mph N/A   Clear
1:55 PM 63.3 °F - 30.7 °F 29% 29.99 in 10.0 mi North 20.7 mph 28.8 mph N/A   Clear
2:15 PM 62.2 °F - 31.1 °F 31% 29.99 in 10.0 mi North 20.7 mph 26.5 mph N/A   Clear
2:35 PM 64.0 °F - 31.1 °F 29% 29.99 in 10.0 mi North 16.1 mph 23.0 mph N/A   Clear
2:55 PM 62.2 °F - 31.1 °F 31% 29.99 in 10.0 mi North 16.1 mph 23.0 mph N/A   Clear
3:15 PM 61.2 °F - 32.0 °F 33% 29.99 in 10.0 mi North 21.9 mph 25.3 mph N/A   Clear
3:35 PM 61.9 °F - 32.2 °F 33% 30.00 in 10.0 mi North 15.0 mph 20.7 mph N/A   Clear
3:55 PM 61.0 °F - 32.7 °F 35% 30.00 in 10.0 mi North 18.4 mph 24.2 mph N/A   Clear
4:15 PM 61.3 °F - 33.3 °F 35% 30.00 in 10.0 mi North 15.0 mph 23.0 mph N/A   Clear
4:35 PM 60.4 °F - 33.6 °F 37% 30.01 in 10.0 mi North 16.1 mph - N/A   Clear
4:55 PM 59.4 °F - 34.2 °F 39% 30.02 in 10.0 mi North 16.1 mph 21.9 mph N/A   Clear
5:15 PM 58.6 °F - 34.3 °F 40% 30.03 in 10.0 mi North 12.7 mph 19.6 mph N/A   Clear
5:35 PM 58.1 °F - 34.7 °F 41% 30.03 in 10.0 mi North 8.1 mph - N/A   Clear
5:55 PM 58.1 °F - 34.2 °F 41% 30.04 in 10.0 mi North 12.7 mph 17.3 mph N/A   Clear
6:15 PM 56.1 °F - 34.7 °F 45% 30.04 in 10.0 mi North 9.2 mph - N/A   Clear
6:35 PM 54.0 °F - 34.3 °F 47% 30.05 in 10.0 mi North 8.1 mph - N/A   Clear
6:55 PM 50.4 °F - 34.7 °F 55% 30.06 in 10.0 mi NNE 4.6 mph - N/A   Clear
7:15 PM 48.6 °F - 34.7 °F 59% 30.07 in 10.0 mi Calm Calm - N/A   Clear
7:35 PM 48.2 °F - 34.7 °F 60% 30.08 in 10.0 mi Calm Calm - N/A   Clear
7:55 PM 45.7 °F 42.0 °F 33.8 °F 63% 30.08 in 10.0 mi ENE 6.9 mph - N/A   Clear
8:15 PM 45.3 °F - 34.0 °F 65% 30.09 in 10.0 mi Calm Calm - N/A   Clear
8:35 PM 45.7 °F - 34.7 °F 65% 30.09 in 10.0 mi Calm Calm - N/A   Clear
8:55 PM 43.2 °F - 34.3 °F 71% 30.09 in 10.0 mi Calm Calm - N/A   Clear
9:35 PM 42.6 °F - 34.3 °F 73% 30.10 in 10.0 mi Calm Calm - N/A   Clear
9:55 PM 43.2 °F - 34.0 °F 70% 30.11 in 10.0 mi Calm Calm - N/A   Clear
10:15 PM 40.8 °F 37.8 °F 33.4 °F 75% 30.12 in 10.0 mi WSW 4.6 mph - N/A   Clear
10:35 PM 39.2 °F 34.2 °F 32.9 °F 78% 30.13 in 10.0 mi WSW 6.9 mph - N/A   Clear
10:55 PM 38.3 °F 33.9 °F 32.2 °F 79% 30.14 in 10.0 mi WSW 5.8 mph - N/A   Clear
11:15 PM 38.3 °F 33.9 °F 32.4 °F 79% 30.15 in 10.0 mi SW 5.8 mph - N/A   Clear
11:35 PM 39.2 °F 35.0 °F 32.9 °F 78% 30.15 in 10.0 mi WSW 5.8 mph - N/A   Clear
11:55 PM 39.2 °F 35.0 °F 32.5 °F 77% 30.16 in 10.0 mi WSW 5.8 mph - N/A   Clear